< < Back
Terminal Aerodrome Forecast


Current Version              Previous Versions:   1  2  3  4  5  6  7  8  9  

Terminal Aerodrome Forecast

453
FTUS42 KFFC 211700
TAFCSG
TAF
KCSG 211732Z 2118/2218 32006KT P6SM VCSH SCT045
     FM220200 00000KT P6SM SKC
     FM221600 33006KT P6SM SCT040=



Latest METAR

655
SAUS70 KWBC 221000
MTRCSG
METAR KCSG 220951Z AUTO 00000KT 10SM CLR 24/22 A3006 RMK AO2 SLP172
T02390222


USA.gov is the U.S. government's official web portal to all federal, state and local government web resources and services.